Nimrod, Arkansas
Current Conditions -  °F | °C
As of 11:53 PM on Tuesday 27 Jan 2015 (Local Time) from KRUE Reporting Station
Clear Clear  
Wind Chill: 50°   Ceiling: Unl
Heat Index: 50°   Visibility: 10mi
Dew Point: 36°   Wind: 6mph
Humidity: 59%   Direction: NA
Pressure: 30.16"   Gusts: NA
Location:  34.9067°N, 93.0072°W
Report Text: KRUE 280553Z AUTO VRB05KT 10SM CLR 10/02 A3016 RMK AO2 SLP209 T01000022 10122 20050 402171011 53011
Loading
Personal Weather Stations






























Interactive Weather Map New forecast layout! Learn more

10-Day Weather Forecast

Advertisements
Track Severe Weather on mobile